GOOY/DKR METAR and TAF weather

Enter ICAO airport designator
Station Type Date Time Source
GOOY METAR 2019/04/24 22:00 UTC NOAA

GOOY 242200Z 34006KT 8000 NSC 21/19 Q1013


Station Type Date Time Source
GOOY Decoded METAR 2019/04/24 22:00 UTC NOAA

Dakar / Yoff, Senegal (GOOY) 14-44N 017-30W 24M
Apr 24, 2019 - 06:00 PM EDT / 2019.04.24 2200 UTC
Wind: from the NNW (340 degrees) at 7 MPH (6 KT):0
Visibility: 4 mile(s):0
Temperature: 69 F (21 C)
Dew Point: 66 F (19 C)
Relative Humidity: 88%
Pressure (altimeter): 29.91 in. Hg (1013 hPa)
ob: GOOY 242200Z 34006KT 8000 NSC 21/19 Q1013
cycle: 22

Station Type Date Time Source
GOOY TAF 2019/04/25 00:00 UTC NOAA

TAF GOOY 242330Z 2500/2606 34008KT 8000 NSC
BECMG 2505/2507 CAVOK

Example: see airport list